sensor_id;sensor_type;location;lat;lon;timestamp;pressure;altitude;pressure_sealevel;temperature;humidity
6435;BME280;3250;42.694;23.278;2023-09-18T00:00:22;95307.75;;;18.42;90.81
6435;BME280;3250;42.694;23.278;2023-09-18T00:02:48;95302.53;;;18.53;91.08
6435;BME280;3250;42.694;23.278;2023-09-18T00:05:13;95287.00;;;18.44;90.34
6435;BME280;3250;42.694;23.278;2023-09-18T00:07:41;95304.16;;;18.54;90.44
6435;BME280;3250;42.694;23.278;2023-09-18T00:10:08;95282.22;;;18.46;90.13
6435;BME280;3250;42.694;23.278;2023-09-18T00:12:34;95290.81;;;18.54;89.57
6435;BME280;3250;42.694;23.278;2023-09-18T00:14:59;95301.03;;;18.57;89.39
6435;BME280;3250;42.694;23.278;2023-09-18T00:17:24;95300.44;;;18.55;89.69
6435;BME280;3250;42.694;23.278;2023-09-18T00:19:50;95297.16;;;18.47;89.72
6435;BME280;3250;42.694;23.278;2023-09-18T00:22:17;95270.06;;;18.34;89.02
6435;BME280;3250;42.694;23.278;2023-09-18T00:24:42;95290.25;;;18.52;88.59
6435;BME280;3250;42.694;23.278;2023-09-18T00:27:07;95303.13;;;18.55;88.64
6435;BME280;3250;42.694;23.278;2023-09-18T00:29:33;95302.31;;;18.54;88.31
6435;BME280;3250;42.694;23.278;2023-09-18T00:31:58;95306.81;;;18.54;88.77
6435;BME280;3250;42.694;23.278;2023-09-18T00:34:24;95279.00;;;18.44;89.04
6435;BME280;3250;42.694;23.278;2023-09-18T00:36:49;95301.03;;;18.57;88.72
6435;BME280;3250;42.694;23.278;2023-09-18T00:39:14;95308.44;;;18.55;88.54
6435;BME280;3250;42.694;23.278;2023-09-18T00:41:40;95310.84;;;18.34;88.75
6435;BME280;3250;42.694;23.278;2023-09-18T00:44:06;95287.25;;;18.21;89.19
6435;BME280;3250;42.694;23.278;2023-09-18T00:46:32;95303.84;;;18.28;89.83
6435;BME280;3250;42.694;23.278;2023-09-18T00:48:58;95309.28;;;18.33;89.72
6435;BME280;3250;42.694;23.278;2023-09-18T00:51:24;95309.28;;;18.33;90.46
6435;BME280;3250;42.694;23.278;2023-09-18T00:53:50;95311.66;;;18.35;89.75
6435;BME280;3250;42.694;23.278;2023-09-18T00:56:15;95306.47;;;18.23;90.52
6435;BME280;3250;42.694;23.278;2023-09-18T00:58:41;95318.31;;;18.32;90.13
6435;BME280;3250;42.694;23.278;2023-09-18T01:01:07;95313.22;;;18.31;90.66
6435;BME280;3250;42.694;23.278;2023-09-18T01:03:34;95301.38;;;18.22;89.98
6435;BME280;3250;42.694;23.278;2023-09-18T01:06:01;95315.66;;;18.32;88.86
6435;BME280;3250;42.694;23.278;2023-09-18T01:08:26;95324.47;;;18.33;88.53
6435;BME280;3250;42.694;23.278;2023-09-18T01:10:56;95326.56;;;18.31;88.33
6435;BME280;3250;42.694;23.278;2023-09-18T01:13:51;95326.47;;;18.26;88.26
6435;BME280;3250;42.694;23.278;2023-09-18T01:16:24;95321.41;;;18.24;88.26
6435;BME280;3250;42.694;23.278;2023-09-18T01:18:51;95324.81;;;18.20;88.48
6435;BME280;3250;42.694;23.278;2023-09-18T01:21:19;95321.84;;;18.16;88.57
6435;BME280;3250;42.694;23.278;2023-09-18T01:23:44;95320.38;;;18.08;88.96
6435;BME280;3250;42.694;23.278;2023-09-18T01:26:10;95322.19;;;18.03;89.21
6435;BME280;3250;42.694;23.278;2023-09-18T01:28:35;95318.88;;;17.96;88.78
6435;BME280;3250;42.694;23.278;2023-09-18T01:31:00;95320.34;;;17.87;89.38
6435;BME280;3250;42.694;23.278;2023-09-18T01:33:27;95303.59;;;17.69;89.78
6435;BME280;3250;42.694;23.278;2023-09-18T01:35:54;95317.78;;;17.75;90.16
6435;BME280;3250;42.694;23.278;2023-09-18T01:38:22;95319.63;;;17.75;90.17
6435;BME280;3250;42.694;23.278;2023-09-18T01:40:48;95308.81;;;17.64;89.97
6435;BME280;3250;42.694;23.278;2023-09-18T01:43:13;95317.13;;;17.68;89.84
6435;BME280;3250;42.694;23.278;2023-09-18T01:45:39;95316.34;;;17.67;90.13
6435;BME280;3250;42.694;23.278;2023-09-18T01:48:05;95328.25;;;17.65;89.89
6435;BME280;3250;42.694;23.278;2023-09-18T01:50:31;95321.59;;;17.62;90.08
6435;BME280;3250;42.694;23.278;2023-09-18T01:52:58;95315.34;;;17.57;89.99
6435;BME280;3250;42.694;23.278;2023-09-18T01:55:24;95312.56;;;17.63;89.98
6435;BME280;3250;42.694;23.278;2023-09-18T01:57:49;95317.63;;;17.65;89.89
6435;BME280;3250;42.694;23.278;2023-09-18T02:00:15;95320.03;;;17.66;89.65
6435;BME280;3250;42.694;23.278;2023-09-18T02:02:40;95320.59;;;17.68;89.31
6435;BME280;3250;42.694;23.278;2023-09-18T02:05:06;95314.63;;;17.61;89.16
6435;BME280;3250;42.694;23.278;2023-09-18T02:07:31;95325.88;;;17.63;89.50
6435;BME280;3250;42.694;23.278;2023-09-18T02:09:57;95328.16;;;17.60;89.30
6435;BME280;3250;42.694;23.278;2023-09-18T02:12:22;95325.50;;;17.60;89.56
6435;BME280;3250;42.694;23.278;2023-09-18T02:14:48;95327.59;;;17.58;89.61
6435;BME280;3250;42.694;23.278;2023-09-18T02:17:13;95316.88;;;17.53;89.89
6435;BME280;3250;42.694;23.278;2023-09-18T02:19:39;95331.75;;;17.65;90.22
6435;BME280;3250;42.694;23.278;2023-09-18T02:22:04;95325.88;;;17.63;90.24
6435;BME280;3250;42.694;23.278;2023-09-18T02:24:30;95332.25;;;17.62;89.65
6435;BME280;3250;42.694;23.278;2023-09-18T02:26:55;95325.88;;;17.63;89.55
6435;BME280;3250;42.694;23.278;2023-09-18T02:29:20;95320.19;;;17.60;89.82
6435;BME280;3250;42.694;23.278;2023-09-18T02:31:46;95327.94;;;17.61;89.52
6435;BME280;3250;42.694;23.278;2023-09-18T02:34:11;95329.16;;;17.54;89.58
6435;BME280;3250;42.694;23.278;2023-09-18T02:36:37;95322.91;;;17.48;89.86
6435;BME280;3250;42.694;23.278;2023-09-18T02:39:02;95324.28;;;17.51;89.63
6435;BME280;3250;42.694;23.278;2023-09-18T02:41:28;95310.25;;;17.39;89.27
6435;BME280;3250;42.694;23.278;2023-09-18T02:43:53;95323.41;;;17.45;90.26
6435;BME280;3250;42.694;23.278;2023-09-18T02:46:18;95327.13;;;17.44;90.34
6435;BME280;3250;42.694;23.278;2023-09-18T02:48:44;95326.56;;;17.42;89.91
6435;BME280;3250;42.694;23.278;2023-09-18T02:51:09;95324.38;;;17.39;89.67
6435;BME280;3250;42.694;23.278;2023-09-18T02:53:35;95314.84;;;17.26;90.06
6435;BME280;3250;42.694;23.278;2023-09-18T02:56:00;95329.16;;;17.37;90.27
6435;BME280;3250;42.694;23.278;2023-09-18T02:58:26;95333.97;;;17.40;90.53
6435;BME280;3250;42.694;23.278;2023-09-18T03:00:55;95331.31;;;17.40;90.21
6435;BME280;3250;42.694;23.278;2023-09-18T03:03:20;95308.16;;;17.24;90.97
6435;BME280;3250;42.694;23.278;2023-09-18T03:05:46;95339.53;;;17.39;90.89
6435;BME280;3250;42.694;23.278;2023-09-18T03:08:13;95333.91;;;17.35;90.44
6435;BME280;3250;42.694;23.278;2023-09-18T03:10:40;95337.59;;;17.34;90.62
6435;BME280;3250;42.694;23.278;2023-09-18T03:13:07;95330.09;;;17.31;90.65
6435;BME280;3250;42.694;23.278;2023-09-18T03:15:33;95328.00;;;17.33;91.08
6435;BME280;3250;42.694;23.278;2023-09-18T03:17:59;95328.00;;;17.33;90.72
6435;BME280;3250;42.694;23.278;2023-09-18T03:20:26;95330.66;;;17.33;90.93
6435;BME280;3250;42.694;23.278;2023-09-18T03:22:55;95330.25;;;17.41;91.32
6435;BME280;3250;42.694;23.278;2023-09-18T03:25:20;95324.88;;;17.36;91.23
6435;BME280;3250;42.694;23.278;2023-09-18T03:27:47;95327.53;;;17.36;91.04
6435;BME280;3250;42.694;23.278;2023-09-18T03:30:13;95326.56;;;17.42;91.98
6435;BME280;3250;42.694;23.278;2023-09-18T03:32:41;95321.56;;;17.46;92.10
6435;BME280;3250;42.694;23.278;2023-09-18T03:35:07;95315.97;;;17.47;92.06
6435;BME280;3250;42.694;23.278;2023-09-18T03:37:35;95318.41;;;17.49;92.35
6435;BME280;3250;42.694;23.278;2023-09-18T03:40:00;95317.94;;;17.52;91.92
6435;BME280;3250;42.694;23.278;2023-09-18T03:42:27;95310.56;;;17.59;91.66
6435;BME280;3250;42.694;23.278;2023-09-18T03:44:52;95317.06;;;17.63;91.30
6435;BME280;3250;42.694;23.278;2023-09-18T03:47:17;95308.03;;;17.64;91.09
6435;BME280;3250;42.694;23.278;2023-09-18T03:49:43;95305.69;;;17.67;91.30
6435;BME280;3250;42.694;23.278;2023-09-18T03:52:08;95308.69;;;17.71;90.91
6435;BME280;3250;42.694;23.278;2023-09-18T03:54:33;95302.22;;;17.67;91.46
6435;BME280;3250;42.694;23.278;2023-09-18T03:56:59;95294.22;;;17.67;90.77
6435;BME280;3250;42.694;23.278;2023-09-18T03:59:24;95309.31;;;17.78;90.80
6435;BME280;3250;42.694;23.278;2023-09-18T04:01:50;95304.47;;;17.75;90.54
6435;BME280;3250;42.694;23.278;2023-09-18T04:04:15;95302.03;;;17.73;90.53
6435;BME280;3250;42.694;23.278;2023-09-18T04:06:43;95300.06;;;17.64;90.77
6435;BME280;3250;42.694;23.278;2023-09-18T04:09:09;95304.56;;;17.63;90.93
6435;BME280;3250;42.694;23.278;2023-09-18T04:11:35;95303.88;;;17.56;91.79
6435;BME280;3250;42.694;23.278;2023-09-18T04:14:01;95298.31;;;17.58;91.39
6435;BME280;3250;42.694;23.278;2023-09-18T04:16:27;95318.13;;;17.62;91.10
6435;BME280;3250;42.694;23.278;2023-09-18T04:19:03;95314.03;;;17.59;90.88
6435;BME280;3250;42.694;23.278;2023-09-18T04:21:28;95299.88;;;17.37;91.82
6435;BME280;3250;42.694;23.278;2023-09-18T04:23:55;95301.97;;;17.35;91.45
6435;BME280;3250;42.694;23.278;2023-09-18T04:26:25;95323.25;;;17.52;91.52
6435;BME280;3250;42.694;23.278;2023-09-18T04:28:55;95335.53;;;17.53;91.66
6435;BME280;3250;42.694;23.278;2023-09-18T04:31:21;95333.44;;;17.55;91.60
6435;BME280;3250;42.694;23.278;2023-09-18T04:33:46;95326.78;;;17.57;91.54
6435;BME280;3250;42.694;23.278;2023-09-18T04:36:11;95335.13;;;17.61;91.81
6435;BME280;3250;42.694;23.278;2023-09-18T04:38:37;95337.88;;;17.66;90.93
6435;BME280;3250;42.694;23.278;2023-09-18T04:41:02;95337.63;;;17.67;91.11
6435;BME280;3250;42.694;23.278;2023-09-18T04:43:28;95332.88;;;17.69;91.41
6435;BME280;3250;42.694;23.278;2023-09-18T04:45:56;95327.63;;;17.75;91.22
6435;BME280;3250;42.694;23.278;2023-09-18T04:48:21;95328.25;;;17.82;90.86
6435;BME280;3250;42.694;23.278;2023-09-18T04:50:48;95333.03;;;17.80;91.15
6435;BME280;3250;42.694;23.278;2023-09-18T04:53:13;95328.81;;;17.84;91.22
6435;BME280;3250;42.694;23.278;2023-09-18T04:55:39;95330.53;;;17.90;91.02
6435;BME280;3250;42.694;23.278;2023-09-18T04:58:04;95328.72;;;17.95;90.03
6435;BME280;3250;42.694;23.278;2023-09-18T05:00:30;95306.47;;;17.85;90.27
6435;BME280;3250;42.694;23.278;2023-09-18T05:02:57;95332.91;;;18.08;90.44
6435;BME280;3250;42.694;23.278;2023-09-18T05:05:26;95333.28;;;18.17;89.39
6435;BME280;3250;42.694;23.278;2023-09-18T05:07:51;95332.88;;;18.25;89.66
6435;BME280;3250;42.694;23.278;2023-09-18T05:10:19;95327.75;;;18.40;89.00
6435;BME280;3250;42.694;23.278;2023-09-18T05:12:44;95332.13;;;18.51;88.67
6435;BME280;3250;42.694;23.278;2023-09-18T05:15:10;95331.31;;;18.67;88.17
6435;BME280;3250;42.694;23.278;2023-09-18T05:17:45;95338.06;;;18.75;87.20
6435;BME280;3250;42.694;23.278;2023-09-18T05:20:17;95336.03;;;18.87;86.84
6435;BME280;3250;42.694;23.278;2023-09-18T05:22:43;95339.19;;;19.06;86.20
6435;BME280;3250;42.694;23.278;2023-09-18T05:25:10;95341.72;;;19.17;85.41
6435;BME280;3250;42.694;23.278;2023-09-18T05:27:36;95346.63;;;19.31;85.10
6435;BME280;3250;42.694;23.278;2023-09-18T05:30:13;95345.69;;;19.47;84.25
6435;BME280;3250;42.694;23.278;2023-09-18T05:32:41;95356.47;;;19.52;82.99
6435;BME280;3250;42.694;23.278;2023-09-18T05:35:07;95348.47;;;19.52;82.81
6435;BME280;3250;42.694;23.278;2023-09-18T05:37:36;95345.53;;;19.53;82.79
6435;BME280;3250;42.694;23.278;2023-09-18T05:40:02;95353.59;;;19.32;83.17
6435;BME280;3250;42.694;23.278;2023-09-18T05:42:29;95335.44;;;19.34;82.98
6435;BME280;3250;42.694;23.278;2023-09-18T05:44:55;95351.38;;;19.50;83.06
6435;BME280;3250;42.694;23.278;2023-09-18T05:47:21;95348.00;;;19.60;83.21
6435;BME280;3250;42.694;23.278;2023-09-18T05:49:47;95362.78;;;19.73;81.73
6435;BME280;3250;42.694;23.278;2023-09-18T05:52:12;95360.84;;;19.63;81.83
6435;BME280;3250;42.694;23.278;2023-09-18T05:54:37;95353.69;;;19.42;82.32
6435;BME280;3250;42.694;23.278;2023-09-18T05:57:03;95356.34;;;19.42;82.69
6435;BME280;3250;42.694;23.278;2023-09-18T05:59:28;95350.19;;;19.41;82.51
6435;BME280;3250;42.694;23.278;2023-09-18T06:01:54;95352.50;;;19.28;82.15
6435;BME280;3250;42.694;23.278;2023-09-18T06:04:19;95347.69;;;19.03;83.77
6435;BME280;3250;42.694;23.278;2023-09-18T06:06:45;95347.69;;;19.03;84.00
6435;BME280;3250;42.694;23.278;2023-09-18T06:09:11;95348.56;;;19.08;83.99
6435;BME280;3250;42.694;23.278;2023-09-18T06:11:36;95357.75;;;19.22;83.98
6435;BME280;3250;42.694;23.278;2023-09-18T06:14:02;95347.88;;;19.23;83.25
6435;BME280;3250;42.694;23.278;2023-09-18T06:16:27;95351.38;;;19.23;83.18
6435;BME280;3250;42.694;23.278;2023-09-18T06:18:53;95347.16;;;19.28;82.99
6435;BME280;3250;42.694;23.278;2023-09-18T06:21:21;95358.13;;;19.31;83.56
6435;BME280;3250;42.694;23.278;2023-09-18T06:23:46;95358.78;;;19.43;82.49
6435;BME280;3250;42.694;23.278;2023-09-18T06:26:11;95343.75;;;19.37;82.50
6435;BME280;3250;42.694;23.278;2023-09-18T06:28:37;95359.94;;;19.52;81.65
6435;BME280;3250;42.694;23.278;2023-09-18T06:31:03;95364.53;;;19.57;82.32
6435;BME280;3250;42.694;23.278;2023-09-18T06:33:29;95353.09;;;19.62;81.99
6435;BME280;3250;42.694;23.278;2023-09-18T06:35:55;95362.34;;;19.86;82.03
6435;BME280;3250;42.694;23.278;2023-09-18T06:38:20;95359.78;;;20.01;81.95
6435;BME280;3250;42.694;23.278;2023-09-18T06:40:46;95354.53;;;20.16;81.66
6435;BME280;3250;42.694;23.278;2023-09-18T06:43:11;95359.72;;;20.33;80.40
6435;BME280;3250;42.694;23.278;2023-09-18T06:45:37;95361.47;;;20.49;80.43
6435;BME280;3250;42.694;23.278;2023-09-18T06:48:04;95363.13;;;20.65;78.13
6435;BME280;3250;42.694;23.278;2023-09-18T06:50:29;95358.31;;;20.67;77.33
6435;BME280;3250;42.694;23.278;2023-09-18T06:52:55;95360.16;;;20.67;77.17
6435;BME280;3250;42.694;23.278;2023-09-18T06:55:21;95360.22;;;20.72;77.71
6435;BME280;3250;42.694;23.278;2023-09-18T06:57:47;95363.97;;;20.76;77.84
6435;BME280;3250;42.694;23.278;2023-09-18T07:00:14;95357.28;;;20.79;78.23
6435;BME280;3250;42.694;23.278;2023-09-18T07:02:45;95360.53;;;20.86;77.18
6435;BME280;3250;42.694;23.278;2023-09-18T07:05:11;95361.88;;;20.88;76.62
6435;BME280;3250;42.694;23.278;2023-09-18T07:07:36;95342.31;;;20.83;76.67
6435;BME280;3250;42.694;23.278;2023-09-18T07:10:02;95350.13;;;21.04;75.35
6435;BME280;3250;42.694;23.278;2023-09-18T07:12:28;95366.78;;;21.17;74.97
6435;BME280;3250;42.694;23.278;2023-09-18T07:14:53;95365.97;;;21.16;75.49
6435;BME280;3250;42.694;23.278;2023-09-18T07:17:18;95355.59;;;21.40;74.70
6435;BME280;3250;42.694;23.278;2023-09-18T07:19:44;95346.25;;;21.42;73.80
6435;BME280;3250;42.694;23.278;2023-09-18T07:22:09;95371.69;;;21.55;73.10
6435;BME280;3250;42.694;23.278;2023-09-18T07:24:36;95370.63;;;21.56;73.69
6435;BME280;3250;42.694;23.278;2023-09-18T07:27:06;95373.59;;;21.75;73.45
6435;BME280;3250;42.694;23.278;2023-09-18T07:29:31;95381.63;;;22.31;73.74
6435;BME280;3250;42.694;23.278;2023-09-18T07:31:56;95385.53;;;22.74;69.86
6435;BME280;3250;42.694;23.278;2023-09-18T07:34:22;95370.78;;;22.76;68.79
6435;BME280;3250;42.694;23.278;2023-09-18T07:36:47;95373.00;;;23.23;69.58
6435;BME280;3250;42.694;23.278;2023-09-18T07:39:12;95384.03;;;23.66;66.57
6435;BME280;3250;42.694;23.278;2023-09-18T07:41:38;95371.22;;;23.48;66.06
6435;BME280;3250;42.694;23.278;2023-09-18T07:44:04;95381.50;;;23.36;66.38
6435;BME280;3250;42.694;23.278;2023-09-18T07:46:30;95379.03;;;23.49;66.45
6435;BME280;3250;42.694;23.278;2023-09-18T07:48:55;95376.97;;;23.75;65.38
6435;BME280;3250;42.694;23.278;2023-09-18T07:51:21;95382.25;;;24.19;64.46
6435;BME280;3250;42.694;23.278;2023-09-18T07:53:46;95375.69;;;24.35;63.63
6435;BME280;3250;42.694;23.278;2023-09-18T07:56:12;95369.06;;;24.52;62.32
6435;BME280;3250;42.694;23.278;2023-09-18T07:58:37;95372.72;;;24.85;62.69
6435;BME280;3250;42.694;23.278;2023-09-18T08:01:04;95379.78;;;25.04;62.51
6435;BME280;3250;42.694;23.278;2023-09-18T08:03:31;95376.53;;;25.45;61.48
6435;BME280;3250;42.694;23.278;2023-09-18T08:05:56;95369.69;;;25.71;60.25
6435;BME280;3250;42.694;23.278;2023-09-18T08:08:22;95365.09;;;25.90;58.54
6435;BME280;3250;42.694;23.278;2023-09-18T08:10:49;95367.13;;;25.80;58.66
6435;BME280;3250;42.694;23.278;2023-09-18T08:13:15;95347.78;;;25.59;58.09
6435;BME280;3250;42.694;23.278;2023-09-18T08:15:41;95354.66;;;25.46;58.31
6435;BME280;3250;42.694;23.278;2023-09-18T08:18:06;95362.84;;;25.41;59.10
6435;BME280;3250;42.694;23.278;2023-09-18T08:20:31;95357.81;;;24.92;59.63
6435;BME280;3250;42.694;23.278;2023-09-18T08:22:58;95343.56;;;24.92;60.91
6435;BME280;3250;42.694;23.278;2023-09-18T08:25:26;95335.28;;;25.26;59.83
6435;BME280;3250;42.694;23.278;2023-09-18T08:27:52;95343.09;;;25.83;58.69
6435;BME280;3250;42.694;23.278;2023-09-18T08:30:18;95342.06;;;25.79;57.26
6435;BME280;3250;42.694;23.278;2023-09-18T08:32:46;95345.91;;;25.60;58.03
6435;BME280;3250;42.694;23.278;2023-09-18T08:35:12;95349.88;;;25.62;57.92
6435;BME280;3250;42.694;23.278;2023-09-18T08:37:40;95343.59;;;25.48;57.53
6435;BME280;3250;42.694;23.278;2023-09-18T08:40:09;95341.63;;;25.35;58.65
6435;BME280;3250;42.694;23.278;2023-09-18T08:42:38;95331.72;;;25.49;58.00
6435;BME280;3250;42.694;23.278;2023-09-18T08:45:07;95328.38;;;25.76;57.82
6435;BME280;3250;42.694;23.278;2023-09-18T08:47:35;95335.00;;;25.83;57.38
6435;BME280;3250;42.694;23.278;2023-09-18T08:50:01;95327.44;;;26.13;56.62
6435;BME280;3250;42.694;23.278;2023-09-18T08:52:27;95330.91;;;26.32;55.45
6435;BME280;3250;42.694;23.278;2023-09-18T08:54:54;95316.19;;;26.24;54.62
6435;BME280;3250;42.694;23.278;2023-09-18T08:57:21;95327.38;;;26.18;55.18
6435;BME280;3250;42.694;23.278;2023-09-18T08:59:50;95321.94;;;26.04;55.78
6435;BME280;3250;42.694;23.278;2023-09-18T09:02:16;95323.66;;;26.14;55.80
6435;BME280;3250;42.694;23.278;2023-09-18T09:04:41;95321.63;;;25.92;54.86
6435;BME280;3250;42.694;23.278;2023-09-18T09:07:07;95323.72;;;25.95;54.90
6435;BME280;3250;42.694;23.278;2023-09-18T09:09:32;95314.31;;;25.92;55.21
6435;BME280;3250;42.694;23.278;2023-09-18T09:11:58;95303.50;;;25.60;56.15
6435;BME280;3250;42.694;23.278;2023-09-18T09:14:24;95318.66;;;25.75;55.91
6435;BME280;3250;42.694;23.278;2023-09-18T09:16:56;95314.75;;;25.67;55.16
6435;BME280;3250;42.694;23.278;2023-09-18T09:19:30;95308.59;;;25.80;55.60
6435;BME280;3250;42.694;23.278;2023-09-18T09:21:56;95316.88;;;26.16;54.68
6435;BME280;3250;42.694;23.278;2023-09-18T09:24:42;95300.16;;;26.14;53.52
6435;BME280;3250;42.694;23.278;2023-09-18T09:27:12;95311.94;;;26.05;53.95
6435;BME280;3250;42.694;23.278;2023-09-18T09:29:39;95311.63;;;25.92;54.12
6435;BME280;3250;42.694;23.278;2023-09-18T09:32:16;95307.63;;;26.04;53.74
6435;BME280;3250;42.694;23.278;2023-09-18T09:34:43;95307.03;;;25.93;53.99
6435;BME280;3250;42.694;23.278;2023-09-18T09:37:09;95288.94;;;25.93;54.80
6435;BME280;3250;42.694;23.278;2023-09-18T09:39:47;95287.25;;;25.98;54.11
6435;BME280;3250;42.694;23.278;2023-09-18T09:42:16;95309.81;;;25.88;54.09
6435;BME280;3250;42.694;23.278;2023-09-18T09:44:46;95308.31;;;25.63;53.03
6435;BME280;3250;42.694;23.278;2023-09-18T09:47:13;95298.63;;;25.62;53.26
6435;BME280;3250;42.694;23.278;2023-09-18T09:49:47;95278.31;;;25.32;53.63
6435;BME280;3250;42.694;23.278;2023-09-18T09:52:18;95284.81;;;25.31;54.97
6435;BME280;3250;42.694;23.278;2023-09-18T09:54:47;95265.47;;;25.43;54.96
6435;BME280;3250;42.694;23.278;2023-09-18T09:57:13;95289.06;;;25.70;55.34
6435;BME280;3250;42.694;23.278;2023-09-18T09:59:38;95291.28;;;25.68;55.03
6435;BME280;3250;42.694;23.278;2023-09-18T10:02:07;95285.88;;;25.49;55.36
6435;BME280;3250;42.694;23.278;2023-09-18T10:04:35;95279.25;;;25.60;55.57
6435;BME280;3250;42.694;23.278;2023-09-18T10:07:08;95278.94;;;25.43;54.43
6435;BME280;3250;42.694;23.278;2023-09-18T10:09:36;95271.38;;;25.45;54.88
6435;BME280;3250;42.694;23.278;2023-09-18T10:12:10;95278.50;;;25.54;55.16
6435;BME280;3250;42.694;23.278;2023-09-18T10:14:36;95246.13;;;25.22;54.47
6435;BME280;3250;42.694;23.278;2023-09-18T10:17:15;95271.66;;;25.43;54.47
6435;BME280;3250;42.694;23.278;2023-09-18T10:19:49;95274.28;;;25.48;53.52
6435;BME280;3250;42.694;23.278;2023-09-18T10:24:58;95263.38;;;25.40;53.94
6435;BME280;3250;42.694;23.278;2023-09-18T10:27:25;95260.31;;;25.28;53.94
6435;BME280;3250;42.694;23.278;2023-09-18T10:29:52;95237.66;;;25.29;54.13
6435;BME280;3250;42.694;23.278;2023-09-18T10:32:20;95237.47;;;25.25;53.18
6435;BME280;3250;42.694;23.278;2023-09-18T10:34:47;95238.72;;;24.95;54.10
6435;BME280;3250;42.694;23.278;2023-09-18T10:37:14;95239.75;;;24.99;54.66
6435;BME280;3250;42.694;23.278;2023-09-18T10:39:41;95226.97;;;24.86;54.17
6435;BME280;3250;42.694;23.278;2023-09-18T10:42:08;95224.66;;;24.98;55.07
6435;BME280;3250;42.694;23.278;2023-09-18T10:44:34;95235.88;;;25.24;54.75
6435;BME280;3250;42.694;23.278;2023-09-18T10:47:02;95230.75;;;25.23;54.06
6435;BME280;3250;42.694;23.278;2023-09-18T10:49:28;95231.72;;;25.13;53.46
6435;BME280;3250;42.694;23.278;2023-09-18T10:51:54;95234.03;;;25.19;53.35
6435;BME280;3250;42.694;23.278;2023-09-18T10:54:22;95217.00;;;25.24;52.96
6435;BME280;3250;42.694;23.278;2023-09-18T10:56:48;95228.63;;;25.19;52.86
6435;BME280;3250;42.694;23.278;2023-09-18T10:59:15;95219.38;;;25.26;53.12
6435;BME280;3250;42.694;23.278;2023-09-18T11:01:41;95223.09;;;25.30;53.18
6435;BME280;3250;42.694;23.278;2023-09-18T11:04:07;95218.50;;;25.30;52.88
6435;BME280;3250;42.694;23.278;2023-09-18T11:09:26;95209.31;;;25.31;53.58
6435;BME280;3250;42.694;23.278;2023-09-18T11:12:04;95210.31;;;25.35;52.18
6435;BME280;3250;42.694;23.278;2023-09-18T11:17:40;95206.66;;;24.94;52.76
6435;BME280;3250;42.694;23.278;2023-09-18T11:20:21;95200.69;;;24.78;52.59
6435;BME280;3250;42.694;23.278;2023-09-18T11:22:58;95196.31;;;24.82;53.00
6435;BME280;3250;42.694;23.278;2023-09-18T11:28:00;95186.72;;;24.95;52.42
6435;BME280;3250;42.694;23.278;2023-09-18T11:30:27;95189.31;;;25.18;51.69
6435;BME280;3250;42.694;23.278;2023-09-18T11:32:54;95197.31;;;25.24;52.02
6435;BME280;3250;42.694;23.278;2023-09-18T11:35:20;95186.13;;;25.16;51.96
6435;BME280;3250;42.694;23.278;2023-09-18T11:37:47;95193.69;;;25.14;51.78
6435;BME280;3250;42.694;23.278;2023-09-18T11:40:33;95164.94;;;24.91;52.21
6435;BME280;3250;42.694;23.278;2023-09-18T11:43:23;95177.16;;;25.02;52.62
6435;BME280;3250;42.694;23.278;2023-09-18T11:45:51;95171.09;;;25.10;52.96
6435;BME280;3250;42.694;23.278;2023-09-18T11:48:19;95172.50;;;25.40;52.47
6435;BME280;3250;42.694;23.278;2023-09-18T11:50:45;95180.19;;;25.33;51.27
6435;BME280;3250;42.694;23.278;2023-09-18T11:53:12;95178.88;;;25.31;51.80
6435;BME280;3250;42.694;23.278;2023-09-18T11:55:41;95169.00;;;25.40;51.69
6435;BME280;3250;42.694;23.278;2023-09-18T11:58:07;95168.44;;;25.56;50.66
6435;BME280;3250;42.694;23.278;2023-09-18T12:00:35;95177.88;;;25.59;50.67
6435;BME280;3250;42.694;23.278;2023-09-18T12:03:22;95171.94;;;25.57;50.30
6435;BME280;3250;42.694;23.278;2023-09-18T12:05:56;95176.16;;;25.63;50.63
6435;BME280;3250;42.694;23.278;2023-09-18T12:08:23;95163.94;;;25.52;50.51
6435;BME280;3250;42.694;23.278;2023-09-18T12:10:52;95151.84;;;25.49;51.18
6435;BME280;3250;42.694;23.278;2023-09-18T12:13:18;95173.00;;;25.75;50.65
6435;BME280;3250;42.694;23.278;2023-09-18T12:15:43;95164.00;;;25.79;50.36
6435;BME280;3250;42.694;23.278;2023-09-18T12:18:09;95149.84;;;25.55;51.11
6435;BME280;3250;42.694;23.278;2023-09-18T12:20:37;95159.25;;;25.58;51.79
6435;BME280;3250;42.694;23.278;2023-09-18T12:23:03;95169.84;;;25.54;50.64
6435;BME280;3250;42.694;23.278;2023-09-18T12:25:28;95155.59;;;25.35;50.82
6435;BME280;3250;42.694;23.278;2023-09-18T12:27:54;95155.56;;;25.07;52.02
6435;BME280;3250;42.694;23.278;2023-09-18T12:30:21;95146.94;;;25.05;52.90
6435;BME280;3250;42.694;23.278;2023-09-18T12:32:49;95144.78;;;25.07;53.89
6435;BME280;3250;42.694;23.278;2023-09-18T12:35:15;95145.84;;;24.88;54.79
6435;BME280;3250;42.694;23.278;2023-09-18T12:37:41;95156.56;;;24.74;55.13
6435;BME280;3250;42.694;23.278;2023-09-18T12:40:20;95166.25;;;24.75;55.03
6435;BME280;3250;42.694;23.278;2023-09-18T12:42:46;95149.75;;;24.63;54.77
6435;BME280;3250;42.694;23.278;2023-09-18T12:45:12;95151.81;;;24.66;54.28
6435;BME280;3250;42.694;23.278;2023-09-18T12:47:38;95150.47;;;24.68;54.40
6435;BME280;3250;42.694;23.278;2023-09-18T12:50:05;95144.13;;;24.78;53.88
6435;BME280;3250;42.694;23.278;2023-09-18T12:52:32;95143.22;;;24.82;52.91
6435;BME280;3250;42.694;23.278;2023-09-18T12:54:58;95137.06;;;24.82;53.43
6435;BME280;3250;42.694;23.278;2023-09-18T12:57:25;95116.50;;;24.86;53.61
6435;BME280;3250;42.694;23.278;2023-09-18T12:59:50;95131.31;;;24.89;53.66
6435;BME280;3250;42.694;23.278;2023-09-18T13:02:18;95135.16;;;24.82;53.34
6435;BME280;3250;42.694;23.278;2023-09-18T13:04:54;95143.59;;;24.76;52.80
6435;BME280;3250;42.694;23.278;2023-09-18T13:07:20;95132.31;;;24.74;53.40
6435;BME280;3250;42.694;23.278;2023-09-18T13:10:05;95137.78;;;24.88;53.69
6435;BME280;3250;42.694;23.278;2023-09-18T13:12:48;95139.75;;;24.82;53.92
6435;BME280;3250;42.694;23.278;2023-09-18T13:15:26;95135.88;;;24.88;54.05
6435;BME280;3250;42.694;23.278;2023-09-18T13:17:55;95129.28;;;24.99;53.64
6435;BME280;3250;42.694;23.278;2023-09-18T13:20:24;95129.75;;;25.01;53.32